sensor_id;sensor_type;location;lat;lon;timestamp;pressure;altitude;pressure_sealevel;temperature;humidity
7200;BME280;3641;49.082;8.200;2022-12-20T00:01:17;100891.66;;;-0.06;98.40
7200;BME280;3641;49.082;8.200;2022-12-20T00:03:44;100889.94;;;-0.07;98.25
7200;BME280;3641;49.082;8.200;2022-12-20T00:06:11;100875.47;;;-0.04;98.34
7200;BME280;3641;49.082;8.200;2022-12-20T00:08:40;100873.81;;;-0.07;98.37
7200;BME280;3641;49.082;8.200;2022-12-20T00:11:07;100871.94;;;-0.05;98.19
7200;BME280;3641;49.082;8.200;2022-12-20T00:13:34;100859.91;;;0.01;97.77
7200;BME280;3641;49.082;8.200;2022-12-20T00:16:06;100865.25;;;0.01;97.43
7200;BME280;3641;49.082;8.200;2022-12-20T00:18:33;100872.56;;;-0.01;97.32
7200;BME280;3641;49.082;8.200;2022-12-20T00:21:00;100868.78;;;0.02;97.46
7200;BME280;3641;49.082;8.200;2022-12-20T00:23:27;100867.00;;;0.02;98.17
7200;BME280;3641;49.082;8.200;2022-12-20T00:26:01;100879.53;;;0.02;98.30
7200;BME280;3641;49.082;8.200;2022-12-20T00:28:27;100865.06;;;0.04;98.46
7200;BME280;3641;49.082;8.200;2022-12-20T00:30:54;100866.78;;;0.05;98.49
7200;BME280;3641;49.082;8.200;2022-12-20T00:33:21;100873.09;;;0.04;98.78
7200;BME280;3641;49.082;8.200;2022-12-20T00:35:47;100865.25;;;0.01;98.62
7200;BME280;3641;49.082;8.200;2022-12-20T00:38:14;100868.47;;;0.06;98.14
7200;BME280;3641;49.082;8.200;2022-12-20T00:40:40;100869.47;;;0.05;97.89
7200;BME280;3641;49.082;8.200;2022-12-20T00:43:08;100864.63;;;0.10;97.02
7200;BME280;3641;49.082;8.200;2022-12-20T00:45:34;100870.84;;;0.11;97.58
7200;BME280;3641;49.082;8.200;2022-12-20T00:48:01;100877.22;;;0.10;97.26
7200;BME280;3641;49.082;8.200;2022-12-20T00:50:27;100861.97;;;0.10;97.85
7200;BME280;3641;49.082;8.200;2022-12-20T00:52:54;100861.97;;;0.10;98.03
7200;BME280;3641;49.082;8.200;2022-12-20T00:55:20;100864.63;;;0.10;97.89
7200;BME280;3641;49.082;8.200;2022-12-20T00:57:47;100858.41;;;0.10;98.17
7200;BME280;3641;49.082;8.200;2022-12-20T01:00:15;100862.69;;;0.12;98.15
7200;BME280;3641;49.082;8.200;2022-12-20T01:02:42;100863.78;;;0.10;98.09
7200;BME280;3641;49.082;8.200;2022-12-20T01:05:08;100862.59;;;0.14;97.05
7200;BME280;3641;49.082;8.200;2022-12-20T01:07:35;100867.75;;;0.17;97.31
7200;BME280;3641;49.082;8.200;2022-12-20T01:10:02;100847.47;;;0.13;97.89
7200;BME280;3641;49.082;8.200;2022-12-20T01:12:28;100858.13;;;0.14;97.77
7200;BME280;3641;49.082;8.200;2022-12-20T01:14:55;100854.34;;;0.17;97.74
7200;BME280;3641;49.082;8.200;2022-12-20T01:17:22;100853.28;;;0.20;97.52
7200;BME280;3641;49.082;8.200;2022-12-20T01:19:49;100847.13;;;0.17;97.41
7200;BME280;3641;49.082;8.200;2022-12-20T01:22:15;100847.91;;;0.20;97.53
7200;BME280;3641;49.082;8.200;2022-12-20T01:24:42;100844.56;;;0.16;97.13
7200;BME280;3641;49.082;8.200;2022-12-20T01:27:08;100849.06;;;0.15;97.69
7200;BME280;3641;49.082;8.200;2022-12-20T01:29:35;100848.75;;;0.20;97.10
7200;BME280;3641;49.082;8.200;2022-12-20T01:32:01;100843.28;;;0.22;98.01
7200;BME280;3641;49.082;8.200;2022-12-20T01:34:29;100846.81;;;0.22;97.93
7200;BME280;3641;49.082;8.200;2022-12-20T01:36:56;100852.19;;;0.22;97.28
7200;BME280;3641;49.082;8.200;2022-12-20T01:39:22;100840.69;;;0.20;98.06
7200;BME280;3641;49.082;8.200;2022-12-20T01:41:48;100842.44;;;0.21;98.23
7200;BME280;3641;49.082;8.200;2022-12-20T01:44:55;100837.91;;;0.22;97.76
7200;BME280;3641;49.082;8.200;2022-12-20T01:47:24;100841.56;;;0.21;97.68
7200;BME280;3641;49.082;8.200;2022-12-20T01:49:54;100846.91;;;0.21;97.84
7200;BME280;3641;49.082;8.200;2022-12-20T01:52:26;100842.31;;;0.23;97.85
7200;BME280;3641;49.082;8.200;2022-12-20T01:54:59;100834.81;;;0.28;100.00
7200;BME280;3641;49.082;8.200;2022-12-20T01:57:31;100831.38;;;0.26;100.00
7200;BME280;3641;49.082;8.200;2022-12-20T02:00:00;100820.97;;;0.21;99.61
7200;BME280;3641;49.082;8.200;2022-12-20T02:02:26;100829.84;;;0.22;99.49
7200;BME280;3641;49.082;8.200;2022-12-20T02:04:54;100819.88;;;0.24;98.51
7200;BME280;3641;49.082;8.200;2022-12-20T02:07:25;100816.00;;;0.28;97.70
7200;BME280;3641;49.082;8.200;2022-12-20T02:09:55;100819.66;;;0.27;97.97
7200;BME280;3641;49.082;8.200;2022-12-20T02:12:24;100824.81;;;0.30;98.00
7200;BME280;3641;49.082;8.200;2022-12-20T02:15:03;100825.56;;;0.32;97.73
7200;BME280;3641;49.082;8.200;2022-12-20T02:17:42;100815.78;;;0.31;97.48
7200;BME280;3641;49.082;8.200;2022-12-20T02:20:33;100808.47;;;0.33;97.51
7200;BME280;3641;49.082;8.200;2022-12-20T02:23:20;100804.94;;;0.32;97.86
7200;BME280;3641;49.082;8.200;2022-12-20T02:26:03;100800.44;;;0.33;97.66
7200;BME280;3641;49.082;8.200;2022-12-20T02:28:50;100791.75;;;0.29;97.48
7200;BME280;3641;49.082;8.200;2022-12-20T02:31:25;100785.16;;;0.33;97.41
7200;BME280;3641;49.082;8.200;2022-12-20T02:33:54;100776.25;;;0.33;96.80
7200;BME280;3641;49.082;8.200;2022-12-20T02:36:23;100774.53;;;0.32;97.17
7200;BME280;3641;49.082;8.200;2022-12-20T02:38:49;100776.25;;;0.33;96.68
7200;BME280;3641;49.082;8.200;2022-12-20T02:41:18;100779.91;;;0.32;96.87
7200;BME280;3641;49.082;8.200;2022-12-20T02:43:48;100791.53;;;0.32;97.38
7200;BME280;3641;49.082;8.200;2022-12-20T02:46:35;100798.50;;;0.35;97.46
7200;BME280;3641;49.082;8.200;2022-12-20T02:49:07;100788.72;;;0.34;97.08
7200;BME280;3641;49.082;8.200;2022-12-20T02:51:36;100780.91;;;0.31;97.22
7200;BME280;3641;49.082;8.200;2022-12-20T02:54:04;100780.91;;;0.31;97.70
7200;BME280;3641;49.082;8.200;2022-12-20T02:56:33;100780.69;;;0.34;98.38
7200;BME280;3641;49.082;8.200;2022-12-20T02:59:06;100784.31;;;0.33;97.88
7200;BME280;3641;49.082;8.200;2022-12-20T03:01:38;100779.78;;;0.33;97.97
7200;BME280;3641;49.082;8.200;2022-12-20T03:04:07;100787.84;;;0.33;97.93
7200;BME280;3641;49.082;8.200;2022-12-20T03:06:33;100779.69;;;0.35;97.25
7200;BME280;3641;49.082;8.200;2022-12-20T03:09:00;100778.63;;;0.38;97.48
7200;BME280;3641;49.082;8.200;2022-12-20T03:11:26;100783.25;;;0.35;97.48
7200;BME280;3641;49.082;8.200;2022-12-20T03:13:53;100795.59;;;0.38;97.51
7200;BME280;3641;49.082;8.200;2022-12-20T03:16:19;100781.63;;;0.33;99.91
7200;BME280;3641;49.082;8.200;2022-12-20T03:18:47;100780.69;;;0.34;98.13
7200;BME280;3641;49.082;8.200;2022-12-20T03:21:14;100780.34;;;0.39;98.29
7200;BME280;3641;49.082;8.200;2022-12-20T03:23:40;100776.06;;;0.36;96.88
7200;BME280;3641;49.082;8.200;2022-12-20T03:26:06;100770.03;;;0.32;98.08
7200;BME280;3641;49.082;8.200;2022-12-20T03:28:33;100769.72;;;0.37;97.73
7200;BME280;3641;49.082;8.200;2022-12-20T03:30:59;100768.72;;;0.38;97.53
7200;BME280;3641;49.082;8.200;2022-12-20T03:33:26;100764.97;;;0.41;97.01
7200;BME280;3641;49.082;8.200;2022-12-20T03:35:54;100764.03;;;0.42;97.26
7200;BME280;3641;49.082;8.200;2022-12-20T03:38:20;100756.19;;;0.39;96.67
7200;BME280;3641;49.082;8.200;2022-12-20T03:40:46;100760.69;;;0.38;97.22
7200;BME280;3641;49.082;8.200;2022-12-20T03:43:13;100759.09;;;0.35;97.25
7200;BME280;3641;49.082;8.200;2022-12-20T03:45:39;100764.13;;;0.40;96.67
7200;BME280;3641;49.082;8.200;2022-12-20T03:48:06;100767.56;;;0.42;97.08
7200;BME280;3641;49.082;8.200;2022-12-20T03:50:33;100757.03;;;0.39;97.49
7200;BME280;3641;49.082;8.200;2022-12-20T03:53:02;100759.72;;;0.39;97.70
7200;BME280;3641;49.082;8.200;2022-12-20T03:55:28;100758.88;;;0.39;97.21
7200;BME280;3641;49.082;8.200;2022-12-20T03:57:55;100749.19;;;0.36;97.48
7200;BME280;3641;49.082;8.200;2022-12-20T04:00:21;100756.19;;;0.39;96.92
7200;BME280;3641;49.082;8.200;2022-12-20T04:02:48;100753.50;;;0.39;96.92
7200;BME280;3641;49.082;8.200;2022-12-20T04:05:15;100753.41;;;0.40;97.05
7200;BME280;3641;49.082;8.200;2022-12-20T04:07:41;100749.72;;;0.41;97.02
7200;BME280;3641;49.082;8.200;2022-12-20T04:10:11;100742.75;;;0.39;97.16
7200;BME280;3641;49.082;8.200;2022-12-20T04:12:37;100740.72;;;0.42;96.89
7200;BME280;3641;49.082;8.200;2022-12-20T04:15:04;100744.34;;;0.41;96.94
7200;BME280;3641;49.082;8.200;2022-12-20T04:17:32;100742.66;;;0.40;96.76
7200;BME280;3641;49.082;8.200;2022-12-20T04:19:58;100736.63;;;0.36;98.02
7200;BME280;3641;49.082;8.200;2022-12-20T04:22:43;100719.75;;;0.34;99.20
7200;BME280;3641;49.082;8.200;2022-12-20T04:25:10;100724.91;;;0.38;99.55
7200;BME280;3641;49.082;8.200;2022-12-20T04:27:37;100715.91;;;0.39;100.00
7200;BME280;3641;49.082;8.200;2022-12-20T04:30:04;100721.28;;;0.39;99.22
7200;BME280;3641;49.082;8.200;2022-12-20T04:32:31;100725.88;;;0.36;100.00
7200;BME280;3641;49.082;8.200;2022-12-20T04:34:57;100717.59;;;0.40;100.00
7200;BME280;3641;49.082;8.200;2022-12-20T04:37:23;100717.50;;;0.41;99.21
7200;BME280;3641;49.082;8.200;2022-12-20T04:39:50;100721.78;;;0.44;99.44
7200;BME280;3641;49.082;8.200;2022-12-20T04:42:18;100717.28;;;0.44;98.37
7200;BME280;3641;49.082;8.200;2022-12-20T04:44:44;100715.22;;;0.48;97.73
7200;BME280;3641;49.082;8.200;2022-12-20T04:47:11;100712.78;;;0.45;97.72
7200;BME280;3641;49.082;8.200;2022-12-20T04:49:37;100721.34;;;0.50;97.81
7200;BME280;3641;49.082;8.200;2022-12-20T04:52:04;100725.84;;;0.49;98.28
7200;BME280;3641;49.082;8.200;2022-12-20T04:54:44;100713.31;;;0.50;98.25
7200;BME280;3641;49.082;8.200;2022-12-20T04:57:12;100726.63;;;0.51;97.64
7200;BME280;3641;49.082;8.200;2022-12-20T04:59:39;100727.69;;;0.49;97.91
7200;BME280;3641;49.082;8.200;2022-12-20T05:02:06;100725.84;;;0.49;97.60
7200;BME280;3641;49.082;8.200;2022-12-20T05:04:32;100715.00;;;0.51;97.46
7200;BME280;3641;49.082;8.200;2022-12-20T05:06:59;100715.00;;;0.51;98.16
7200;BME280;3641;49.082;8.200;2022-12-20T05:09:25;100700.59;;;0.52;98.60
7200;BME280;3641;49.082;8.200;2022-12-20T05:11:52;100706.94;;;0.51;97.74
7200;BME280;3641;49.082;8.200;2022-12-20T05:14:18;100699.97;;;0.48;97.58
7200;BME280;3641;49.082;8.200;2022-12-20T05:16:46;100702.44;;;0.51;97.55
7200;BME280;3641;49.082;8.200;2022-12-20T05:19:13;100703.41;;;0.50;97.58
7200;BME280;3641;49.082;8.200;2022-12-20T05:21:39;100697.06;;;0.51;97.49
7200;BME280;3641;49.082;8.200;2022-12-20T05:24:23;100710.63;;;0.50;97.93
7200;BME280;3641;49.082;8.200;2022-12-20T05:27:07;100718.34;;;0.54;97.62
7200;BME280;3641;49.082;8.200;2022-12-20T05:29:34;100717.56;;;0.52;98.31
7200;BME280;3641;49.082;8.200;2022-12-20T05:32:02;100713.94;;;0.53;98.07
7200;BME280;3641;49.082;8.200;2022-12-20T05:34:28;100709.28;;;0.56;97.83
7200;BME280;3641;49.082;8.200;2022-12-20T05:36:55;100707.72;;;0.53;97.82
7200;BME280;3641;49.082;8.200;2022-12-20T05:39:21;100710.16;;;0.56;97.59
7200;BME280;3641;49.082;8.200;2022-12-20T05:41:48;100704.81;;;0.56;97.60
7200;BME280;3641;49.082;8.200;2022-12-20T05:44:14;100702.97;;;0.57;97.46
7200;BME280;3641;49.082;8.200;2022-12-20T05:46:41;100705.53;;;0.58;98.24
7200;BME280;3641;49.082;8.200;2022-12-20T05:49:09;100698.53;;;0.56;98.08
7200;BME280;3641;49.082;8.200;2022-12-20T05:51:35;100692.22;;;0.57;98.26
7200;BME280;3641;49.082;8.200;2022-12-20T05:54:02;100687.69;;;0.57;97.53
7200;BME280;3641;49.082;8.200;2022-12-20T05:56:28;100684.91;;;0.59;98.24
7200;BME280;3641;49.082;8.200;2022-12-20T05:58:55;100694.69;;;0.60;97.87
7200;BME280;3641;49.082;8.200;2022-12-20T06:01:23;100691.03;;;0.61;97.41
7200;BME280;3641;49.082;8.200;2022-12-20T06:03:49;100695.63;;;0.59;97.31
7200;BME280;3641;49.082;8.200;2022-12-20T06:06:18;100694.06;;;0.56;98.47
7200;BME280;3641;49.082;8.200;2022-12-20T06:08:44;100695.00;;;0.55;98.41
7200;BME280;3641;49.082;8.200;2022-12-20T06:11:11;100684.16;;;0.57;98.30
7200;BME280;3641;49.082;8.200;2022-12-20T06:13:37;100692.09;;;0.58;97.60
7200;BME280;3641;49.082;8.200;2022-12-20T06:16:04;100696.41;;;0.61;97.88
7200;BME280;3641;49.082;8.200;2022-12-20T06:18:31;100691.03;;;0.61;97.04
7200;BME280;3641;49.082;8.200;2022-12-20T06:20:57;100679.28;;;0.62;97.74
7200;BME280;3641;49.082;8.200;2022-12-20T06:23:25;100688.34;;;0.61;97.31
7200;BME280;3641;49.082;8.200;2022-12-20T06:25:52;100698.09;;;0.62;97.33
7200;BME280;3641;49.082;8.200;2022-12-20T06:28:18;100689.31;;;0.60;97.63
7200;BME280;3641;49.082;8.200;2022-12-20T06:30:51;100690.16;;;0.60;97.56
7200;BME280;3641;49.082;8.200;2022-12-20T06:33:17;100689.19;;;0.61;97.75
7200;BME280;3641;49.082;8.200;2022-12-20T06:35:44;100683.94;;;0.60;97.80
7200;BME280;3641;49.082;8.200;2022-12-20T06:38:10;100672.34;;;0.59;98.06
7200;BME280;3641;49.082;8.200;2022-12-20T06:40:38;100673.06;;;0.61;97.42
7200;BME280;3641;49.082;8.200;2022-12-20T06:43:05;100661.50;;;0.61;97.57
7200;BME280;3641;49.082;8.200;2022-12-20T06:45:31;100663.91;;;0.64;97.77
7200;BME280;3641;49.082;8.200;2022-12-20T06:47:58;100667.38;;;0.66;97.81
7200;BME280;3641;49.082;8.200;2022-12-20T06:50:24;100677.34;;;0.64;97.99
7200;BME280;3641;49.082;8.200;2022-12-20T06:52:51;100675.53;;;0.64;97.99
7200;BME280;3641;49.082;8.200;2022-12-20T06:55:17;100675.53;;;0.64;98.00
7200;BME280;3641;49.082;8.200;2022-12-20T06:57:45;100679.91;;;0.65;97.88
7200;BME280;3641;49.082;8.200;2022-12-20T07:00:12;100685.19;;;0.67;99.09
7200;BME280;3641;49.082;8.200;2022-12-20T07:02:39;100687.97;;;0.65;98.28
7200;BME280;3641;49.082;8.200;2022-12-20T07:05:06;100679.69;;;0.68;99.97
7200;BME280;3641;49.082;8.200;2022-12-20T07:07:32;100673.38;;;0.69;98.99
7200;BME280;3641;49.082;8.200;2022-12-20T07:09:59;100662.72;;;0.68;99.87
7200;BME280;3641;49.082;8.200;2022-12-20T07:12:26;100659.31;;;0.66;99.11
7200;BME280;3641;49.082;8.200;2022-12-20T07:14:54;100655.53;;;0.68;99.13
7200;BME280;3641;49.082;8.200;2022-12-20T07:17:20;100659.09;;;0.69;99.31
7200;BME280;3641;49.082;8.200;2022-12-20T07:19:46;100650.16;;;0.68;99.22
7200;BME280;3641;49.082;8.200;2022-12-20T07:22:13;100670.56;;;0.71;99.82
7200;BME280;3641;49.082;8.200;2022-12-20T07:24:39;100660.56;;;0.73;99.37
7200;BME280;3641;49.082;8.200;2022-12-20T07:27:06;100668.00;;;0.69;99.36
7200;BME280;3641;49.082;8.200;2022-12-20T07:29:33;100672.28;;;0.72;98.73
7200;BME280;3641;49.082;8.200;2022-12-20T07:32:01;100674.09;;;0.71;99.05
7200;BME280;3641;49.082;8.200;2022-12-20T07:34:28;100671.31;;;0.73;99.28
7200;BME280;3641;49.082;8.200;2022-12-20T07:36:54;100663.00;;;0.76;99.56
7200;BME280;3641;49.082;8.200;2022-12-20T07:39:21;100675.59;;;0.76;100.00
7200;BME280;3641;49.082;8.200;2022-12-20T07:41:47;100666.31;;;0.80;99.44
7200;BME280;3641;49.082;8.200;2022-12-20T07:44:14;100655.41;;;0.94;100.00
7200;BME280;3641;49.082;8.200;2022-12-20T07:46:41;100640.41;;;1.03;100.00
7200;BME280;3641;49.082;8.200;2022-12-20T07:49:09;100635.53;;;1.08;100.00
7200;BME280;3641;49.082;8.200;2022-12-20T07:51:37;100640.69;;;1.11;100.00
7200;BME280;3641;49.082;8.200;2022-12-20T07:54:09;100634.91;;;1.51;100.00
7200;BME280;3641;49.082;8.200;2022-12-20T07:56:39;100629.44;;;1.64;100.00
7200;BME280;3641;49.082;8.200;2022-12-20T07:59:08;100633.50;;;1.81;100.00
7200;BME280;3641;49.082;8.200;2022-12-20T08:01:36;100633.00;;;1.65;100.00
7200;BME280;3641;49.082;8.200;2022-12-20T08:04:09;100630.19;;;1.55;100.00
7200;BME280;3641;49.082;8.200;2022-12-20T08:06:38;100624.78;;;1.55;100.00
7200;BME280;3641;49.082;8.200;2022-12-20T08:09:08;100627.34;;;1.56;100.00
7200;BME280;3641;49.082;8.200;2022-12-20T08:11:37;100628.06;;;1.47;100.00
7200;BME280;3641;49.082;8.200;2022-12-20T08:14:05;100629.06;;;1.57;100.00
7200;BME280;3641;49.082;8.200;2022-12-20T08:16:32;100628.34;;;1.67;100.00
7200;BME280;3641;49.082;8.200;2022-12-20T08:18:59;100624.16;;;1.74;100.00
7200;BME280;3641;49.082;8.200;2022-12-20T08:21:26;100621.00;;;1.80;100.00
7200;BME280;3641;49.082;8.200;2022-12-20T08:23:53;100611.47;;;1.65;100.00
7200;BME280;3641;49.082;8.200;2022-12-20T08:26:19;100610.00;;;1.72;100.00
7200;BME280;3641;49.082;8.200;2022-12-20T08:28:46;100611.22;;;1.90;100.00
7200;BME280;3641;49.082;8.200;2022-12-20T08:31:12;100606.34;;;1.84;100.00
7200;BME280;3641;49.082;8.200;2022-12-20T08:33:39;100613.16;;;1.77;100.00
7200;BME280;3641;49.082;8.200;2022-12-20T08:36:08;100608.78;;;1.76;100.00
7200;BME280;3641;49.082;8.200;2022-12-20T08:38:37;100603.41;;;1.65;100.00
7200;BME280;3641;49.082;8.200;2022-12-20T08:41:06;100608.78;;;1.65;100.00
7200;BME280;3641;49.082;8.200;2022-12-20T08:43:33;100602.53;;;1.64;100.00
7200;BME280;3641;49.082;8.200;2022-12-20T08:46:00;100602.53;;;1.64;100.00
7200;BME280;3641;49.082;8.200;2022-12-20T08:48:26;100592.88;;;1.61;100.00
7200;BME280;3641;49.082;8.200;2022-12-20T08:50:54;100597.91;;;1.66;100.00
7200;BME280;3641;49.082;8.200;2022-12-20T08:53:21;100598.13;;;1.63;100.00
7200;BME280;3641;49.082;8.200;2022-12-20T08:55:49;100597.03;;;1.66;100.00
7200;BME280;3641;49.082;8.200;2022-12-20T08:58:15;100593.59;;;1.75;100.00
7200;BME280;3641;49.082;8.200;2022-12-20T09:00:42;100597.53;;;1.82;100.00
7200;BME280;3641;49.082;8.200;2022-12-20T09:03:09;100595.78;;;2.04;100.00
7200;BME280;3641;49.082;8.200;2022-12-20T09:05:42;100589.34;;;1.84;100.00
7200;BME280;3641;49.082;8.200;2022-12-20T09:08:09;100584.56;;;1.76;100.00
7200;BME280;3641;49.082;8.200;2022-12-20T09:10:35;100591.88;;;1.74;100.00
7200;BME280;3641;49.082;8.200;2022-12-20T09:13:03;100587.72;;;1.81;100.00
7200;BME280;3641;49.082;8.200;2022-12-20T09:15:29;100596.78;;;1.91;100.00
7200;BME280;3641;49.082;8.200;2022-12-20T09:17:56;100605.34;;;1.96;100.00
7200;BME280;3641;49.082;8.200;2022-12-20T09:20:24;100601.19;;;1.92;100.00
7200;BME280;3641;49.082;8.200;2022-12-20T09:22:51;100596.16;;;1.88;100.00
7200;BME280;3641;49.082;8.200;2022-12-20T09:25:17;100598.00;;;1.87;100.00
7200;BME280;3641;49.082;8.200;2022-12-20T09:27:44;100602.53;;;1.87;100.00
7200;BME280;3641;49.082;8.200;2022-12-20T09:30:12;100590.66;;;1.89;100.00
7200;BME280;3641;49.082;8.200;2022-12-20T09:32:38;100597.50;;;2.05;100.00
7200;BME280;3641;49.082;8.200;2022-12-20T09:35:06;100591.75;;;2.09;100.00
7200;BME280;3641;49.082;8.200;2022-12-20T09:37:32;100587.47;;;2.07;100.00
7200;BME280;3641;49.082;8.200;2022-12-20T09:39:58;100589.88;;;2.21;100.00
7200;BME280;3641;49.082;8.200;2022-12-20T09:42:26;100587.94;;;2.12;100.00
7200;BME280;3641;49.082;8.200;2022-12-20T09:44:59;100590.16;;;2.07;100.00
7200;BME280;3641;49.082;8.200;2022-12-20T09:47:28;100589.91;;;2.10;100.00
7200;BME280;3641;49.082;8.200;2022-12-20T09:49:55;100591.38;;;2.25;100.00
7200;BME280;3641;49.082;8.200;2022-12-20T09:52:40;100583.13;;;2.38;100.00
7200;BME280;3641;49.082;8.200;2022-12-20T09:55:18;100582.09;;;2.50;100.00
7200;BME280;3641;49.082;8.200;2022-12-20T09:58:00;100581.50;;;2.47;100.00
7200;BME280;3641;49.082;8.200;2022-12-20T10:00:34;100579.81;;;2.46;100.00
7200;BME280;3641;49.082;8.200;2022-12-20T10:03:03;100566.09;;;2.38;100.00
7200;BME280;3641;49.082;8.200;2022-12-20T10:05:33;100567.81;;;2.39;100.00
7200;BME280;3641;49.082;8.200;2022-12-20T10:08:06;100575.16;;;2.36;100.00
7200;BME280;3641;49.082;8.200;2022-12-20T10:10:45;100562.41;;;2.39;100.00
7200;BME280;3641;49.082;8.200;2022-12-20T10:13:24;100564.00;;;2.41;100.00
7200;BME280;3641;49.082;8.200;2022-12-20T10:15:59;100568.53;;;2.41;100.00
7200;BME280;3641;49.082;8.200;2022-12-20T10:18:44;100581.16;;;2.40;100.00
7200;BME280;3641;49.082;8.200;2022-12-20T10:21:18;100568.41;;;2.42;100.00
7200;BME280;3641;49.082;8.200;2022-12-20T10:23:53;100570.84;;;2.45;100.00
7200;BME280;3641;49.082;8.200;2022-12-20T10:26:23;100572.56;;;2.46;100.00
7200;BME280;3641;49.082;8.200;2022-12-20T10:28:49;100568.16;;;2.45;100.00
7200;BME280;3641;49.082;8.200;2022-12-20T10:31:17;100562.25;;;2.51;100.00
7200;BME280;3641;49.082;8.200;2022-12-20T10:33:45;100565.28;;;2.58;100.00
7200;BME280;3641;49.082;8.200;2022-12-20T10:36:23;100554.13;;;2.63;100.00
7200;BME280;3641;49.082;8.200;2022-12-20T10:38:52;100549.19;;;2.68;100.00
7200;BME280;3641;49.082;8.200;2022-12-20T10:41:21;100543.34;;;2.63;100.00
7200;BME280;3641;49.082;8.200;2022-12-20T10:43:53;100537.09;;;2.62;100.00
7200;BME280;3641;49.082;8.200;2022-12-20T10:46:21;100540.66;;;2.63;100.00
7200;BME280;3641;49.082;8.200;2022-12-20T10:48:50;100530.75;;;2.63;100.00
7200;BME280;3641;49.082;8.200;2022-12-20T10:51:18;100526.19;;;2.64;100.00
7200;BME280;3641;49.082;8.200;2022-12-20T10:53:53;100527.38;;;2.71;100.00
7200;BME280;3641;49.082;8.200;2022-12-20T10:56:23;100534.63;;;2.70;100.00
7200;BME280;3641;49.082;8.200;2022-12-20T10:58:54;100533.91;;;2.68;100.00
7200;BME280;3641;49.082;8.200;2022-12-20T11:01:21;100535.81;;;2.78;100.00
7200;BME280;3641;49.082;8.200;2022-12-20T11:03:53;100522.41;;;2.87;100.00
7200;BME280;3641;49.082;8.200;2022-12-20T11:06:22;100504.06;;;2.81;100.00
7200;BME280;3641;49.082;8.200;2022-12-20T11:08:48;100494.13;;;2.82;100.00
7200;BME280;3641;49.082;8.200;2022-12-20T11:11:18;100480.50;;;2.83;100.00
7200;BME280;3641;49.082;8.200;2022-12-20T11:13:45;100479.66;;;2.83;100.00
7200;BME280;3641;49.082;8.200;2022-12-20T11:16:25;100481.50;;;2.82;100.00
7200;BME280;3641;49.082;8.200;2022-12-20T11:19:00;100477.81;;;2.83;100.00
7200;BME280;3641;49.082;8.200;2022-12-20T11:21:33;100477.81;;;2.83;100.00
7200;BME280;3641;49.082;8.200;2022-12-20T11:24:09;100471.94;;;2.99;100.00
7200;BME280;3641;49.082;8.200;2022-12-20T11:26:57;100480.53;;;3.14;100.00
7200;BME280;3641;49.082;8.200;2022-12-20T11:29:52;100485.78;;;3.37;100.00
7200;BME280;3641;49.082;8.200;2022-12-20T11:32:27;100480.88;;;3.21;100.00
7200;BME280;3641;49.082;8.200;2022-12-20T11:35:04;100469.97;;;3.22;100.00
7200;BME280;3641;49.082;8.200;2022-12-20T11:37:37;100467.78;;;3.16;100.00
7200;BME280;3641;49.082;8.200;2022-12-20T11:40:25;100468.63;;;3.17;100.00
7200;BME280;3641;49.082;8.200;2022-12-20T11:43:03;100467.94;;;3.15;100.00
7200;BME280;3641;49.082;8.200;2022-12-20T11:45:42;100456.25;;;3.14;100.00
7200;BME280;3641;49.082;8.200;2022-12-20T11:48:28;100470.63;;;3.15;100.00
7200;BME280;3641;49.082;8.200;2022-12-20T11:51:03;100463.09;;;3.18;100.00
7200;BME280;3641;49.082;8.200;2022-12-20T11:53:35;100465.94;;;3.17;100.00
7200;BME280;3641;49.082;8.200;2022-12-20T11:56:07;100457.97;;;3.15;100.00
7200;BME280;3641;49.082;8.200;2022-12-20T11:58:45;100455.28;;;3.15;100.00
7200;BME280;3641;49.082;8.200;2022-12-20T12:01:16;100444.38;;;3.17;100.00
7200;BME280;3641;49.082;8.200;2022-12-20T12:03:46;100446.78;;;3.20;100.00
7200;BME280;3641;49.082;8.200;2022-12-20T12:06:20;100439.28;;;3.23;100.00
7200;BME280;3641;49.082;8.200;2022-12-20T12:08:51;100441.13;;;3.23;100.00
7200;BME280;3641;49.082;8.200;2022-12-20T12:11:20;100440.56;;;3.19;100.00
7200;BME280;3641;49.082;8.200;2022-12-20T12:13:48;100439.53;;;3.20;100.00
7200;BME280;3641;49.082;8.200;2022-12-20T12:16:17;100439.41;;;3.22;100.00
7200;BME280;3641;49.082;8.200;2022-12-20T12:18:47;100435.72;;;3.23;100.00
7200;BME280;3641;49.082;8.200;2022-12-20T12:21:19;100425.91;;;3.22;100.00
7200;BME280;3641;49.082;8.200;2022-12-20T12:24:00;100418.69;;;3.22;100.00
7200;BME280;3641;49.082;8.200;2022-12-20T12:26:32;100412.28;;;3.23;100.00
7200;BME280;3641;49.082;8.200;2022-12-20T12:29:01;100378.94;;;3.24;100.00
7200;BME280;3641;49.082;8.200;2022-12-20T12:31:34;100372.28;;;3.28;100.00
7200;BME280;3641;49.082;8.200;2022-12-20T12:34:08;100370.44;;;3.29;100.00
7200;BME280;3641;49.082;8.200;2022-12-20T12:37:07;100373.00;;;3.31;100.00
7200;BME280;3641;49.082;8.200;2022-12-20T12:40:07;100379.25;;;3.31;100.00
7200;BME280;3641;49.082;8.200;2022-12-20T12:42:54;100395.16;;;3.34;100.00
7200;BME280;3641;49.082;8.200;2022-12-20T12:45:26;100380.84;;;3.34;100.00
7200;BME280;3641;49.082;8.200;2022-12-20T12:47:56;100384.94;;;3.38;100.00
7200;BME280;3641;49.082;8.200;2022-12-20T12:50:27;100380.69;;;3.35;100.00
7200;BME280;3641;49.082;8.200;2022-12-20T12:52:58;100376.13;;;3.36;100.00
7200;BME280;3641;49.082;8.200;2022-12-20T12:55:41;100359.25;;;3.34;100.00
7200;BME280;3641;49.082;8.200;2022-12-20T12:58:32;100353.44;;;3.38;100.00
7200;BME280;3641;49.082;8.200;2022-12-20T13:01:02;100351.59;;;3.39;100.00
7200;BME280;3641;49.082;8.200;2022-12-20T13:03:41;100359.25;;;3.43;100.00
7200;BME280;3641;49.082;8.200;2022-12-20T13:09:41;100357.13;;;3.37;100.00
7200;BME280;3641;49.082;8.200;2022-12-20T13:15:45;100356.56;;;3.43;100.00
7200;BME280;3641;49.082;8.200;2022-12-20T13:18:25;100359.13;;;3.45;100.00
7200;BME280;3641;49.082;8.200;2022-12-20T13:21:17;100353.88;;;3.43;100.00
7200;BME280;3641;49.082;8.200;2022-12-20T13:26:59;100343.78;;;3.45;100.00
7200;BME280;3641;49.082;8.200;2022-12-20T13:29:31;100353.00;;;3.43;100.00
7200;BME280;3641;49.082;8.200;2022-12-20T13:31:58;100330.56;;;3.42;100.00
7200;BME280;3641;49.082;8.200;2022-12-20T13:34:35;100324.75;;;3.47;100.00
7200;BME280;3641;49.082;8.200;2022-12-20T13:37:02;100324.03;;;3.45;100.00
7200;BME280;3641;49.082;8.200;2022-12-20T13:39:31;100328.56;;;3.44;100.00
7200;BME280;3641;49.082;8.200;2022-12-20T13:42:18;100328.44;;;3.46;100.00